Terminal Aerodrome Forecast
Issued by NWS Wilmington, NC

Home | Current Version | Previous Version | Text Only | Print | Product List | Glossary On
Versions: 1 2 3 4 5 6 7 8 9 10 11 12 13 14 15 16 17 18 19 20
000
FTUS42 KILM 010500
TAFMYR
TAF
KMYR 010523Z 0106/0206 VRB04KT P6SM VCSH SCT035 BKN050
     FM011400 27010G18KT P6SM VCSH BKN040
     FM011800 32014G24KT P6SM -RA SCT025 BKN040 OVC100
     FM020200 21012G20KT P6SM FEW050
      AMD LTD TO CLD VIS AND WIND TIL 011100=

USA.gov is the U.S. government's official web portal to all federal, state and local government web resources and services.